sensor_id;sensor_type;location;lat;lon;timestamp;temperature;humidity
29243;DHT22;21110;48.036;15.780;2023-03-14T00:01:56;25.70;38.20
29243;DHT22;21110;48.036;15.780;2023-03-14T00:04:22;25.70;38.20
29243;DHT22;21110;48.036;15.780;2023-03-14T00:06:47;25.70;38.30
29243;DHT22;21110;48.036;15.780;2023-03-14T00:09:15;25.70;38.50
29243;DHT22;21110;48.036;15.780;2023-03-14T00:11:41;25.70;38.50
29243;DHT22;21110;48.036;15.780;2023-03-14T00:14:06;25.70;38.50
29243;DHT22;21110;48.036;15.780;2023-03-14T00:16:32;25.70;38.30
29243;DHT22;21110;48.036;15.780;2023-03-14T00:19:01;25.60;38.30
29243;DHT22;21110;48.036;15.780;2023-03-14T00:21:27;25.70;38.80
29243;DHT22;21110;48.036;15.780;2023-03-14T00:23:52;25.70;38.40
29243;DHT22;21110;48.036;15.780;2023-03-14T00:26:20;25.60;38.60
29243;DHT22;21110;48.036;15.780;2023-03-14T00:28:46;25.70;38.40
29243;DHT22;21110;48.036;15.780;2023-03-14T00:31:15;25.60;38.70
29243;DHT22;21110;48.036;15.780;2023-03-14T00:33:41;25.60;38.40
29243;DHT22;21110;48.036;15.780;2023-03-14T00:36:12;25.60;38.60
29243;DHT22;21110;48.036;15.780;2023-03-14T00:38:39;25.60;38.30
29243;DHT22;21110;48.036;15.780;2023-03-14T00:41:11;25.60;38.40
29243;DHT22;21110;48.036;15.780;2023-03-14T00:43:37;25.60;38.40
29243;DHT22;21110;48.036;15.780;2023-03-14T00:46:04;25.50;38.30
29243;DHT22;21110;48.036;15.780;2023-03-14T00:48:30;25.60;38.30
29243;DHT22;21110;48.036;15.780;2023-03-14T00:50:55;25.60;38.50
29243;DHT22;21110;48.036;15.780;2023-03-14T00:53:21;25.60;38.40
29243;DHT22;21110;48.036;15.780;2023-03-14T00:55:47;25.60;38.50
29243;DHT22;21110;48.036;15.780;2023-03-14T00:58:15;25.60;38.60
29243;DHT22;21110;48.036;15.780;2023-03-14T01:00:41;25.60;38.60
29243;DHT22;21110;48.036;15.780;2023-03-14T01:03:08;25.60;38.70
29243;DHT22;21110;48.036;15.780;2023-03-14T01:05:34;25.60;38.50
29243;DHT22;21110;48.036;15.780;2023-03-14T01:08:00;25.60;38.70
29243;DHT22;21110;48.036;15.780;2023-03-14T01:10:25;25.60;38.70
29243;DHT22;21110;48.036;15.780;2023-03-14T01:12:51;25.50;38.60
29243;DHT22;21110;48.036;15.780;2023-03-14T01:15:17;25.50;38.60
29243;DHT22;21110;48.036;15.780;2023-03-14T01:17:43;25.60;38.60
29243;DHT22;21110;48.036;15.780;2023-03-14T01:20:11;25.60;38.60
29243;DHT22;21110;48.036;15.780;2023-03-14T01:22:38;25.60;38.70
29243;DHT22;21110;48.036;15.780;2023-03-14T01:25:08;25.50;38.60
29243;DHT22;21110;48.036;15.780;2023-03-14T01:27:34;25.50;38.70
29243;DHT22;21110;48.036;15.780;2023-03-14T01:30:00;25.50;38.70
29243;DHT22;21110;48.036;15.780;2023-03-14T01:32:25;25.50;38.80
29243;DHT22;21110;48.036;15.780;2023-03-14T01:34:51;25.50;38.80
29243;DHT22;21110;48.036;15.780;2023-03-14T01:37:17;25.50;38.90
29243;DHT22;21110;48.036;15.780;2023-03-14T01:39:43;25.50;38.80
29243;DHT22;21110;48.036;15.780;2023-03-14T01:42:08;25.50;38.90
29243;DHT22;21110;48.036;15.780;2023-03-14T01:44:57;25.40;38.90
29243;DHT22;21110;48.036;15.780;2023-03-14T01:47:24;25.50;38.90
29243;DHT22;21110;48.036;15.780;2023-03-14T01:50:01;25.50;38.90
29243;DHT22;21110;48.036;15.780;2023-03-14T01:52:31;25.50;38.90
29243;DHT22;21110;48.036;15.780;2023-03-14T01:55:20;25.40;38.90
29243;DHT22;21110;48.036;15.780;2023-03-14T01:58:05;25.50;38.80
29243;DHT22;21110;48.036;15.780;2023-03-14T02:00:31;25.50;38.80
29243;DHT22;21110;48.036;15.780;2023-03-14T02:03:00;25.40;38.90
29243;DHT22;21110;48.036;15.780;2023-03-14T02:05:29;25.40;38.90
29243;DHT22;21110;48.036;15.780;2023-03-14T02:07:59;25.40;39.10
29243;DHT22;21110;48.036;15.780;2023-03-14T02:10:28;25.40;39.20
29243;DHT22;21110;48.036;15.780;2023-03-14T02:12:56;25.40;39.20
29243;DHT22;21110;48.036;15.780;2023-03-14T02:15:24;25.40;39.20
29243;DHT22;21110;48.036;15.780;2023-03-14T02:17:51;25.40;39.30
29243;DHT22;21110;48.036;15.780;2023-03-14T02:20:49;25.40;39.30
29243;DHT22;21110;48.036;15.780;2023-03-14T02:23:29;25.30;39.20
29243;DHT22;21110;48.036;15.780;2023-03-14T02:26:21;25.30;39.20
29243;DHT22;21110;48.036;15.780;2023-03-14T02:28:48;25.30;39.20
29243;DHT22;21110;48.036;15.780;2023-03-14T02:31:14;25.30;39.40
29243;DHT22;21110;48.036;15.780;2023-03-14T02:33:40;25.40;39.40
29243;DHT22;21110;48.036;15.780;2023-03-14T02:36:09;25.40;39.40
29243;DHT22;21110;48.036;15.780;2023-03-14T02:39:03;25.40;39.40
29243;DHT22;21110;48.036;15.780;2023-03-14T02:41:26;25.40;39.40
29243;DHT22;21110;48.036;15.780;2023-03-14T02:43:51;25.40;39.50
29243;DHT22;21110;48.036;15.780;2023-03-14T02:46:19;25.40;39.40
29243;DHT22;21110;48.036;15.780;2023-03-14T02:48:53;25.30;39.40
29243;DHT22;21110;48.036;15.780;2023-03-14T02:51:21;25.30;39.50
29243;DHT22;21110;48.036;15.780;2023-03-14T02:53:46;25.30;39.50
29243;DHT22;21110;48.036;15.780;2023-03-14T02:56:12;25.30;39.60
29243;DHT22;21110;48.036;15.780;2023-03-14T02:58:38;25.30;39.70
29243;DHT22;21110;48.036;15.780;2023-03-14T03:01:04;25.30;39.70
29243;DHT22;21110;48.036;15.780;2023-03-14T03:03:30;25.30;39.70
29243;DHT22;21110;48.036;15.780;2023-03-14T03:05:56;25.20;39.70
29243;DHT22;21110;48.036;15.780;2023-03-14T03:08:24;25.20;39.80
29243;DHT22;21110;48.036;15.780;2023-03-14T03:10:51;25.20;39.80
29243;DHT22;21110;48.036;15.780;2023-03-14T03:13:17;25.20;39.80
29243;DHT22;21110;48.036;15.780;2023-03-14T03:15:44;25.20;39.90
29243;DHT22;21110;48.036;15.780;2023-03-14T03:18:10;25.10;39.90
29243;DHT22;21110;48.036;15.780;2023-03-14T03:20:36;25.00;40.00
29243;DHT22;21110;48.036;15.780;2023-03-14T03:23:02;25.00;40.10
29243;DHT22;21110;48.036;15.780;2023-03-14T03:25:28;25.00;40.20
29243;DHT22;21110;48.036;15.780;2023-03-14T03:27:54;25.00;40.30
29243;DHT22;21110;48.036;15.780;2023-03-14T03:30:20;25.00;40.30
29243;DHT22;21110;48.036;15.780;2023-03-14T03:32:46;24.90;40.20
29243;DHT22;21110;48.036;15.780;2023-03-14T03:35:12;24.90;40.30
29243;DHT22;21110;48.036;15.780;2023-03-14T03:37:37;24.90;40.30
29243;DHT22;21110;48.036;15.780;2023-03-14T03:40:04;24.90;40.30
29243;DHT22;21110;48.036;15.780;2023-03-14T03:42:32;24.80;40.30
29243;DHT22;21110;48.036;15.780;2023-03-14T03:44:58;24.80;40.40
29243;DHT22;21110;48.036;15.780;2023-03-14T03:47:24;24.80;40.40
29243;DHT22;21110;48.036;15.780;2023-03-14T03:49:50;24.80;41.00
29243;DHT22;21110;48.036;15.780;2023-03-14T03:52:15;24.80;40.50
29243;DHT22;21110;48.036;15.780;2023-03-14T03:54:41;24.80;40.50
29243;DHT22;21110;48.036;15.780;2023-03-14T03:57:07;24.80;40.50
29243;DHT22;21110;48.036;15.780;2023-03-14T03:59:32;24.80;40.70
29243;DHT22;21110;48.036;15.780;2023-03-14T04:01:58;24.80;40.60
29243;DHT22;21110;48.036;15.780;2023-03-14T04:04:23;24.80;40.80
29243;DHT22;21110;48.036;15.780;2023-03-14T04:06:49;24.80;40.60
29243;DHT22;21110;48.036;15.780;2023-03-14T04:09:15;24.80;40.90
29243;DHT22;21110;48.036;15.780;2023-03-14T04:11:40;24.80;40.80
29243;DHT22;21110;48.036;15.780;2023-03-14T04:14:06;24.80;40.60
29243;DHT22;21110;48.036;15.780;2023-03-14T04:16:32;24.80;40.90
29243;DHT22;21110;48.036;15.780;2023-03-14T04:18:58;24.80;40.70
29243;DHT22;21110;48.036;15.780;2023-03-14T04:21:23;24.70;40.80
29243;DHT22;21110;48.036;15.780;2023-03-14T04:23:49;24.80;40.90
29243;DHT22;21110;48.036;15.780;2023-03-14T04:26:15;24.70;40.80
29243;DHT22;21110;48.036;15.780;2023-03-14T04:28:41;24.70;40.80
29243;DHT22;21110;48.036;15.780;2023-03-14T04:31:08;24.70;40.80
29243;DHT22;21110;48.036;15.780;2023-03-14T04:33:34;24.70;40.80
29243;DHT22;21110;48.036;15.780;2023-03-14T04:36:01;24.70;40.80
29243;DHT22;21110;48.036;15.780;2023-03-14T04:38:27;24.70;40.80
29243;DHT22;21110;48.036;15.780;2023-03-14T04:40:52;24.70;40.80
29243;DHT22;21110;48.036;15.780;2023-03-14T04:43:18;24.80;40.90
29243;DHT22;21110;48.036;15.780;2023-03-14T04:45:44;24.70;41.00
29243;DHT22;21110;48.036;15.780;2023-03-14T04:48:10;24.70;41.70
29243;DHT22;21110;48.036;15.780;2023-03-14T04:50:35;24.70;41.10
29243;DHT22;21110;48.036;15.780;2023-03-14T04:53:01;24.60;41.70
29243;DHT22;21110;48.036;15.780;2023-03-14T04:55:26;24.60;41.20
29243;DHT22;21110;48.036;15.780;2023-03-14T04:57:52;24.60;41.20
29243;DHT22;21110;48.036;15.780;2023-03-14T05:00:18;24.60;41.20
29243;DHT22;21110;48.036;15.780;2023-03-14T05:02:44;24.60;41.20
29243;DHT22;21110;48.036;15.780;2023-03-14T05:05:10;24.60;41.40
29243;DHT22;21110;48.036;15.780;2023-03-14T05:07:36;24.60;41.40
29243;DHT22;21110;48.036;15.780;2023-03-14T05:10:02;24.60;41.30
29243;DHT22;21110;48.036;15.780;2023-03-14T05:12:28;24.50;38.90
29243;DHT22;21110;48.036;15.780;2023-03-14T05:14:53;24.30;37.70
29243;DHT22;21110;48.036;15.780;2023-03-14T05:17:19;23.90;33.20
29243;DHT22;21110;48.036;15.780;2023-03-14T05:19:45;22.50;32.00
29243;DHT22;21110;48.036;15.780;2023-03-14T05:22:11;22.30;34.70
29243;DHT22;21110;48.036;15.780;2023-03-14T05:24:37;22.70;35.00
29243;DHT22;21110;48.036;15.780;2023-03-14T05:27:03;23.10;36.80
29243;DHT22;21110;48.036;15.780;2023-03-14T05:29:29;23.40;37.00
29243;DHT22;21110;48.036;15.780;2023-03-14T05:31:55;23.40;36.90
29243;DHT22;21110;48.036;15.780;2023-03-14T05:34:21;23.40;37.00
29243;DHT22;21110;48.036;15.780;2023-03-14T05:36:46;23.40;37.20
29243;DHT22;21110;48.036;15.780;2023-03-14T05:39:12;23.40;37.40
29243;DHT22;21110;48.036;15.780;2023-03-14T05:41:38;23.50;37.60
29243;DHT22;21110;48.036;15.780;2023-03-14T05:44:03;23.50;37.70
29243;DHT22;21110;48.036;15.780;2023-03-14T05:46:29;23.50;37.80
29243;DHT22;21110;48.036;15.780;2023-03-14T05:48:57;23.50;38.00
29243;DHT22;21110;48.036;15.780;2023-03-14T05:51:23;23.50;38.20
29243;DHT22;21110;48.036;15.780;2023-03-14T05:53:49;23.50;38.20
29243;DHT22;21110;48.036;15.780;2023-03-14T05:56:14;23.50;38.30
29243;DHT22;21110;48.036;15.780;2023-03-14T05:58:40;23.50;38.50
29243;DHT22;21110;48.036;15.780;2023-03-14T06:01:06;23.50;38.50
29243;DHT22;21110;48.036;15.780;2023-03-14T06:03:33;23.50;38.60
29243;DHT22;21110;48.036;15.780;2023-03-14T06:05:58;23.40;38.60
29243;DHT22;21110;48.036;15.780;2023-03-14T06:08:24;23.50;38.70
29243;DHT22;21110;48.036;15.780;2023-03-14T06:10:50;23.50;38.90
29243;DHT22;21110;48.036;15.780;2023-03-14T06:13:16;23.40;38.80
29243;DHT22;21110;48.036;15.780;2023-03-14T06:15:42;23.40;38.90
29243;DHT22;21110;48.036;15.780;2023-03-14T06:18:08;23.40;38.90
29243;DHT22;21110;48.036;15.780;2023-03-14T06:20:38;23.40;39.00
29243;DHT22;21110;48.036;15.780;2023-03-14T06:23:08;23.40;39.00
29243;DHT22;21110;48.036;15.780;2023-03-14T06:25:34;23.40;39.10
29243;DHT22;21110;48.036;15.780;2023-03-14T06:28:00;23.40;39.20
29243;DHT22;21110;48.036;15.780;2023-03-14T06:30:26;23.40;39.20
29243;DHT22;21110;48.036;15.780;2023-03-14T06:32:51;23.40;39.30
29243;DHT22;21110;48.036;15.780;2023-03-14T06:35:20;23.30;39.30
29243;DHT22;21110;48.036;15.780;2023-03-14T06:37:46;23.30;39.40
29243;DHT22;21110;48.036;15.780;2023-03-14T06:40:12;23.40;39.50
29243;DHT22;21110;48.036;15.780;2023-03-14T06:42:42;23.30;39.50
29243;DHT22;21110;48.036;15.780;2023-03-14T06:45:08;23.30;39.50
29243;DHT22;21110;48.036;15.780;2023-03-14T06:47:34;23.30;39.60
29243;DHT22;21110;48.036;15.780;2023-03-14T06:50:00;23.30;39.70
29243;DHT22;21110;48.036;15.780;2023-03-14T06:52:25;23.30;39.60
29243;DHT22;21110;48.036;15.780;2023-03-14T06:54:51;23.30;39.60
29243;DHT22;21110;48.036;15.780;2023-03-14T06:57:17;23.30;39.60
29243;DHT22;21110;48.036;15.780;2023-03-14T06:59:42;23.20;39.60
29243;DHT22;21110;48.036;15.780;2023-03-14T07:02:11;23.30;39.70
29243;DHT22;21110;48.036;15.780;2023-03-14T07:04:37;23.30;39.60
29243;DHT22;21110;48.036;15.780;2023-03-14T07:07:03;23.20;39.60
29243;DHT22;21110;48.036;15.780;2023-03-14T07:09:28;23.30;39.80
29243;DHT22;21110;48.036;15.780;2023-03-14T07:11:54;23.30;39.70
29243;DHT22;21110;48.036;15.780;2023-03-14T07:14:19;23.30;39.80
29243;DHT22;21110;48.036;15.780;2023-03-14T07:16:45;23.20;39.80
29243;DHT22;21110;48.036;15.780;2023-03-14T07:19:11;23.20;39.80
29243;DHT22;21110;48.036;15.780;2023-03-14T07:21:36;23.20;39.90
29243;DHT22;21110;48.036;15.780;2023-03-14T07:24:02;23.20;39.90
29243;DHT22;21110;48.036;15.780;2023-03-14T07:26:28;23.20;39.90
29243;DHT22;21110;48.036;15.780;2023-03-14T07:28:53;23.20;39.90
29243;DHT22;21110;48.036;15.780;2023-03-14T07:31:19;23.20;39.90
29243;DHT22;21110;48.036;15.780;2023-03-14T07:33:48;23.10;39.90
29243;DHT22;21110;48.036;15.780;2023-03-14T07:36:13;23.10;40.00
29243;DHT22;21110;48.036;15.780;2023-03-14T07:38:39;23.10;40.00
29243;DHT22;21110;48.036;15.780;2023-03-14T07:41:06;23.10;40.00
29243;DHT22;21110;48.036;15.780;2023-03-14T07:43:32;23.10;40.00
29243;DHT22;21110;48.036;15.780;2023-03-14T07:45:58;23.10;40.00
29243;DHT22;21110;48.036;15.780;2023-03-14T07:48:24;23.10;40.10
29243;DHT22;21110;48.036;15.780;2023-03-14T07:50:52;23.10;40.10
29243;DHT22;21110;48.036;15.780;2023-03-14T07:53:19;23.10;40.10
29243;DHT22;21110;48.036;15.780;2023-03-14T07:55:45;23.10;40.10
29243;DHT22;21110;48.036;15.780;2023-03-14T07:58:11;23.10;40.20
29243;DHT22;21110;48.036;15.780;2023-03-14T08:00:37;23.10;40.20
29243;DHT22;21110;48.036;15.780;2023-03-14T08:03:03;23.10;40.20
29243;DHT22;21110;48.036;15.780;2023-03-14T08:05:29;23.10;40.30
29243;DHT22;21110;48.036;15.780;2023-03-14T08:07:54;23.10;40.30
29243;DHT22;21110;48.036;15.780;2023-03-14T08:10:20;23.10;40.30
29243;DHT22;21110;48.036;15.780;2023-03-14T08:12:50;23.00;40.20
29243;DHT22;21110;48.036;15.780;2023-03-14T08:15:15;23.00;40.30
29243;DHT22;21110;48.036;15.780;2023-03-14T08:17:41;23.00;40.30
29243;DHT22;21110;48.036;15.780;2023-03-14T08:20:07;23.00;40.30
29243;DHT22;21110;48.036;15.780;2023-03-14T08:22:35;23.00;40.40
29243;DHT22;21110;48.036;15.780;2023-03-14T08:25:00;23.00;40.40
29243;DHT22;21110;48.036;15.780;2023-03-14T08:27:26;23.00;40.40
29243;DHT22;21110;48.036;15.780;2023-03-14T08:29:51;23.00;40.40
29243;DHT22;21110;48.036;15.780;2023-03-14T08:32:17;23.00;40.40
29243;DHT22;21110;48.036;15.780;2023-03-14T08:34:45;23.00;40.50
29243;DHT22;21110;48.036;15.780;2023-03-14T08:37:11;22.90;40.40
29243;DHT22;21110;48.036;15.780;2023-03-14T08:39:36;23.00;40.60
29243;DHT22;21110;48.036;15.780;2023-03-14T08:42:02;22.90;40.50
29243;DHT22;21110;48.036;15.780;2023-03-14T08:44:28;22.90;40.50
29243;DHT22;21110;48.036;15.780;2023-03-14T08:46:54;22.90;40.50
29243;DHT22;21110;48.036;15.780;2023-03-14T08:49:20;23.00;40.60
29243;DHT22;21110;48.036;15.780;2023-03-14T08:51:46;22.90;40.50
29243;DHT22;21110;48.036;15.780;2023-03-14T08:54:12;22.90;40.50
29243;DHT22;21110;48.036;15.780;2023-03-14T08:56:37;22.90;40.50
29243;DHT22;21110;48.036;15.780;2023-03-14T08:59:04;22.90;40.60
29243;DHT22;21110;48.036;15.780;2023-03-14T09:01:29;22.80;40.60
29243;DHT22;21110;48.036;15.780;2023-03-14T09:03:55;22.90;40.70
29243;DHT22;21110;48.036;15.780;2023-03-14T09:06:21;22.90;40.70
29243;DHT22;21110;48.036;15.780;2023-03-14T09:08:46;22.90;40.70
29243;DHT22;21110;48.036;15.780;2023-03-14T09:11:12;22.90;40.70
29243;DHT22;21110;48.036;15.780;2023-03-14T09:13:39;22.90;40.70
29243;DHT22;21110;48.036;15.780;2023-03-14T09:16:05;22.90;40.70
29243;DHT22;21110;48.036;15.780;2023-03-14T09:18:31;22.80;40.70
29243;DHT22;21110;48.036;15.780;2023-03-14T09:20:56;22.80;40.70
29243;DHT22;21110;48.036;15.780;2023-03-14T09:23:22;22.80;40.70
29243;DHT22;21110;48.036;15.780;2023-03-14T09:25:48;22.80;40.80
29243;DHT22;21110;48.036;15.780;2023-03-14T09:28:13;22.80;40.80
29243;DHT22;21110;48.036;15.780;2023-03-14T09:30:39;22.80;40.90
29243;DHT22;21110;48.036;15.780;2023-03-14T09:33:05;22.80;41.40
29243;DHT22;21110;48.036;15.780;2023-03-14T09:35:30;22.80;40.90
29243;DHT22;21110;48.036;15.780;2023-03-14T09:37:56;22.70;40.80
29243;DHT22;21110;48.036;15.780;2023-03-14T09:40:21;22.70;40.80
29243;DHT22;21110;48.036;15.780;2023-03-14T09:42:52;22.70;40.90
29243;DHT22;21110;48.036;15.780;2023-03-14T09:47:53;22.70;40.90
29243;DHT22;21110;48.036;15.780;2023-03-14T09:50:20;22.70;40.90
29243;DHT22;21110;48.036;15.780;2023-03-14T09:52:48;22.70;40.90
29243;DHT22;21110;48.036;15.780;2023-03-14T09:55:18;22.70;40.90
29243;DHT22;21110;48.036;15.780;2023-03-14T09:57:45;22.70;40.90
29243;DHT22;21110;48.036;15.780;2023-03-14T10:00:15;22.70;41.00
29243;DHT22;21110;48.036;15.780;2023-03-14T10:02:46;22.70;41.00
29243;DHT22;21110;48.036;15.780;2023-03-14T10:05:17;22.70;41.00
29243;DHT22;21110;48.036;15.780;2023-03-14T10:07:44;22.70;41.00
29243;DHT22;21110;48.036;15.780;2023-03-14T10:10:17;22.70;41.00
29243;DHT22;21110;48.036;15.780;2023-03-14T10:12:54;22.70;41.10
29243;DHT22;21110;48.036;15.780;2023-03-14T10:15:32;22.60;41.10
29243;DHT22;21110;48.036;15.780;2023-03-14T10:18:01;22.70;41.10
29243;DHT22;21110;48.036;15.780;2023-03-14T10:20:33;22.60;41.10
29243;DHT22;21110;48.036;15.780;2023-03-14T10:23:23;22.60;41.10
29243;DHT22;21110;48.036;15.780;2023-03-14T10:26:18;22.60;41.10
29243;DHT22;21110;48.036;15.780;2023-03-14T10:28:52;22.60;41.10
29243;DHT22;21110;48.036;15.780;2023-03-14T10:31:18;22.60;41.10
29243;DHT22;21110;48.036;15.780;2023-03-14T10:34:04;22.60;41.10
29243;DHT22;21110;48.036;15.780;2023-03-14T10:36:32;22.60;41.10
29243;DHT22;21110;48.036;15.780;2023-03-14T10:41:51;22.60;41.20
29243;DHT22;21110;48.036;15.780;2023-03-14T10:44:21;22.50;41.20
29243;DHT22;21110;48.036;15.780;2023-03-14T10:46:56;22.50;41.20
29243;DHT22;21110;48.036;15.780;2023-03-14T10:49:33;22.60;41.30
29243;DHT22;21110;48.036;15.780;2023-03-14T10:52:02;22.50;41.20
29243;DHT22;21110;48.036;15.780;2023-03-14T10:54:37;22.60;41.30
29243;DHT22;21110;48.036;15.780;2023-03-14T10:57:04;22.50;41.30
29243;DHT22;21110;48.036;15.780;2023-03-14T10:59:39;22.50;41.30
29243;DHT22;21110;48.036;15.780;2023-03-14T11:02:27;22.50;41.30
29243;DHT22;21110;48.036;15.780;2023-03-14T11:05:15;22.50;41.30
29243;DHT22;21110;48.036;15.780;2023-03-14T11:07:44;22.50;41.30
29243;DHT22;21110;48.036;15.780;2023-03-14T11:10:31;22.50;41.30
29243;DHT22;21110;48.036;15.780;2023-03-14T11:16:02;22.40;41.30
29243;DHT22;21110;48.036;15.780;2023-03-14T11:21:21;22.40;41.40
29243;DHT22;21110;48.036;15.780;2023-03-14T11:29:21;22.40;41.40
29243;DHT22;21110;48.036;15.780;2023-03-14T11:31:48;22.40;41.40
29243;DHT22;21110;48.036;15.780;2023-03-14T11:34:17;22.40;41.40
29243;DHT22;21110;48.036;15.780;2023-03-14T11:37:00;22.40;41.40
29243;DHT22;21110;48.036;15.780;2023-03-14T11:39:35;22.40;41.50
29243;DHT22;21110;48.036;15.780;2023-03-14T11:42:03;22.40;41.50
29243;DHT22;21110;48.036;15.780;2023-03-14T11:44:32;22.40;41.50
29243;DHT22;21110;48.036;15.780;2023-03-14T11:47:37;22.30;41.40
29243;DHT22;21110;48.036;15.780;2023-03-14T11:50:16;22.30;41.50
29243;DHT22;21110;48.036;15.780;2023-03-14T11:52:57;22.40;41.60
29243;DHT22;21110;48.036;15.780;2023-03-14T11:55:37;22.30;41.50
29243;DHT22;21110;48.036;15.780;2023-03-14T12:00:38;22.30;41.50
29243;DHT22;21110;48.036;15.780;2023-03-14T12:09:05;22.30;41.50
29243;DHT22;21110;48.036;15.780;2023-03-14T12:11:19;22.30;41.50
29243;DHT22;21110;48.036;15.780;2023-03-14T12:13:49;22.30;41.60
29243;DHT22;21110;48.036;15.780;2023-03-14T12:18:50;22.30;41.60
29243;DHT22;21110;48.036;15.780;2023-03-14T12:21:17;22.20;41.50
29243;DHT22;21110;48.036;15.780;2023-03-14T12:26:25;22.20;41.60
29243;DHT22;21110;48.036;15.780;2023-03-14T12:34:24;22.20;41.70
29243;DHT22;21110;48.036;15.780;2023-03-14T12:37:02;22.20;41.70
29243;DHT22;21110;48.036;15.780;2023-03-14T12:42:40;22.20;41.70
29243;DHT22;21110;48.036;15.780;2023-03-14T12:45:33;22.10;41.70
29243;DHT22;21110;48.036;15.780;2023-03-14T12:48:09;22.10;41.70
29243;DHT22;21110;48.036;15.780;2023-03-14T12:50:44;22.20;41.80
29243;DHT22;21110;48.036;15.780;2023-03-14T12:56:27;22.20;41.80
29243;DHT22;21110;48.036;15.780;2023-03-14T12:59:36;22.20;41.90
29243;DHT22;21110;48.036;15.780;2023-03-14T13:02:17;22.10;41.80
29243;DHT22;21110;48.036;15.780;2023-03-14T13:04:45;22.20;41.90
29243;DHT22;21110;48.036;15.780;2023-03-14T13:08:13;22.10;41.80
29243;DHT22;21110;48.036;15.780;2023-03-14T13:10:47;22.10;41.80
29243;DHT22;21110;48.036;15.780;2023-03-14T13:13:25;22.10;41.90
29243;DHT22;21110;48.036;15.780;2023-03-14T13:15:57;22.10;41.90
29243;DHT22;21110;48.036;15.780;2023-03-14T13:18:42;22.10;41.90
29243;DHT22;21110;48.036;15.780;2023-03-14T13:21:21;22.10;41.90
29243;DHT22;21110;48.036;15.780;2023-03-14T13:26:32;22.00;41.80
29243;DHT22;21110;48.036;15.780;2023-03-14T13:28:58;22.10;41.90
29243;DHT22;21110;48.036;15.780;2023-03-14T13:31:25;22.00;41.80
29243;DHT22;21110;48.036;15.780;2023-03-14T13:34:04;22.10;41.90
29243;DHT22;21110;48.036;15.780;2023-03-14T13:36:30;22.00;41.90
29243;DHT22;21110;48.036;15.780;2023-03-14T13:38:58;22.00;41.90
29243;DHT22;21110;48.036;15.780;2023-03-14T13:41:25;22.00;41.90
29243;DHT22;21110;48.036;15.780;2023-03-14T13:43:51;22.00;42.00
29243;DHT22;21110;48.036;15.780;2023-03-14T13:46:23;22.00;42.00
29243;DHT22;21110;48.036;15.780;2023-03-14T13:49:01;22.00;42.00
29243;DHT22;21110;48.036;15.780;2023-03-14T13:51:27;22.00;42.00
29243;DHT22;21110;48.036;15.780;2023-03-14T13:53:57;22.00;42.00
29243;DHT22;21110;48.036;15.780;2023-03-14T13:56:26;22.00;42.00
29243;DHT22;21110;48.036;15.780;2023-03-14T13:58:52;22.00;42.00
29243;DHT22;21110;48.036;15.780;2023-03-14T14:03:48;22.00;42.00
29243;DHT22;21110;48.036;15.780;2023-03-14T14:06:23;21.90;42.00
29243;DHT22;21110;48.036;15.780;2023-03-14T14:08:51;22.00;42.10
29243;DHT22;21110;48.036;15.780;2023-03-14T14:11:32;21.90;42.00
29243;DHT22;21110;48.036;15.780;2023-03-14T14:14:02;21.90;42.00
29243;DHT22;21110;48.036;15.780;2023-03-14T14:16:28;21.90;42.00
29243;DHT22;21110;48.036;15.780;2023-03-14T14:18:56;21.90;42.10
29243;DHT22;21110;48.036;15.780;2023-03-14T14:21:22;21.90;42.10
29243;DHT22;21110;48.036;15.780;2023-03-14T14:23:48;21.90;42.10
29243;DHT22;21110;48.036;15.780;2023-03-14T14:26:16;21.90;42.10
29243;DHT22;21110;48.036;15.780;2023-03-14T14:28:43;21.90;42.20
29243;DHT22;21110;48.036;15.780;2023-03-14T14:34:00;21.90;42.20
29243;DHT22;21110;48.036;15.780;2023-03-14T14:36:39;21.90;42.20
29243;DHT22;21110;48.036;15.780;2023-03-14T14:41:41;21.80;42.10
29243;DHT22;21110;48.036;15.780;2023-03-14T14:44:07;21.90;42.30
29243;DHT22;21110;48.036;15.780;2023-03-14T14:46:36;21.90;42.30
29243;DHT22;21110;48.036;15.780;2023-03-14T14:49:18;21.80;42.20
29243;DHT22;21110;48.036;15.780;2023-03-14T14:51:47;21.80;42.20
29243;DHT22;21110;48.036;15.780;2023-03-14T14:54:19;21.90;42.30
29243;DHT22;21110;48.036;15.780;2023-03-14T14:56:51;21.80;42.20
29243;DHT22;21110;48.036;15.780;2023-03-14T14:59:23;21.80;42.20
29243;DHT22;21110;48.036;15.780;2023-03-14T15:01:49;21.80;42.30
29243;DHT22;21110;48.036;15.780;2023-03-14T15:04:16;21.80;42.30
29243;DHT22;21110;48.036;15.780;2023-03-14T15:06:46;21.80;42.30
29243;DHT22;21110;48.036;15.780;2023-03-14T15:09:14;21.80;42.30
29243;DHT22;21110;48.036;15.780;2023-03-14T15:11:41;21.80;42.30
29243;DHT22;21110;48.036;15.780;2023-03-14T15:14:07;21.80;42.30
29243;DHT22;21110;48.036;15.780;2023-03-14T15:16:33;21.80;42.40
29243;DHT22;21110;48.036;15.780;2023-03-14T15:19:05;21.80;42.40
29243;DHT22;21110;48.036;15.780;2023-03-14T15:21:34;21.80;42.30
29243;DHT22;21110;48.036;15.780;2023-03-14T15:24:00;21.80;42.40
29243;DHT22;21110;48.036;15.780;2023-03-14T15:26:27;21.80;42.40
29243;DHT22;21110;48.036;15.780;2023-03-14T15:28:53;21.80;42.40
29243;DHT22;21110;48.036;15.780;2023-03-14T15:31:19;21.80;42.40
29243;DHT22;21110;48.036;15.780;2023-03-14T15:33:47;21.70;42.40
29243;DHT22;21110;48.036;15.780;2023-03-14T15:38:48;21.70;42.40
29243;DHT22;21110;48.036;15.780;2023-03-14T15:41:14;21.70;42.40
29243;DHT22;21110;48.036;15.780;2023-03-14T15:43:41;21.70;42.40
29243;DHT22;21110;48.036;15.780;2023-03-14T15:46:12;21.70;42.40
29243;DHT22;21110;48.036;15.780;2023-03-14T15:48:41;21.70;42.40
29243;DHT22;21110;48.036;15.780;2023-03-14T15:51:06;21.70;42.40
29243;DHT22;21110;48.036;15.780;2023-03-14T15:53:32;21.70;42.40
29243;DHT22;21110;48.036;15.780;2023-03-14T15:55:58;21.70;42.40
29243;DHT22;21110;48.036;15.780;2023-03-14T15:58:24;21.70;42.50
29243;DHT22;21110;48.036;15.780;2023-03-14T16:00:50;21.70;42.50
29243;DHT22;21110;48.036;15.780;2023-03-14T16:03:16;21.70;42.50
29243;DHT22;21110;48.036;15.780;2023-03-14T16:05:41;21.70;42.50
29243;DHT22;21110;48.036;15.780;2023-03-14T16:08:07;21.70;42.50
29243;DHT22;21110;48.036;15.780;2023-03-14T16:10:33;21.60;42.50
29243;DHT22;21110;48.036;15.780;2023-03-14T16:12:59;21.60;42.50
29243;DHT22;21110;48.036;15.780;2023-03-14T16:15:25;21.60;42.50
29243;DHT22;21110;48.036;15.780;2023-03-14T16:17:53;21.60;42.50
29243;DHT22;21110;48.036;15.780;2023-03-14T16:20:19;21.70;42.60